createdAt,value
2023-04-26T00:00:30.801Z,3.20
2023-04-26T00:03:00.582Z,4.03
2023-04-26T00:05:29.463Z,4.03
2023-04-26T00:07:59.200Z,4.25
2023-04-26T00:10:26.403Z,3.88
2023-04-26T00:12:53.221Z,4.00
2023-04-26T00:15:19.945Z,4.30
2023-04-26T00:17:50.580Z,4.63
2023-04-26T00:20:17.848Z,4.32
2023-04-26T00:22:44.556Z,3.90
2023-04-26T00:25:11.236Z,4.07
2023-04-26T00:27:57.656Z,4.25
2023-04-26T00:30:57.877Z,4.47
2023-04-26T00:33:28.458Z,4.30
2023-04-26T00:38:22.855Z,4.72
2023-04-26T00:40:51.142Z,4.80
2023-04-26T00:43:18.533Z,4.95
2023-04-26T00:45:45.460Z,5.18
2023-04-26T00:48:13.018Z,4.88
2023-04-26T00:50:39.746Z,5.00
2023-04-26T00:53:07.644Z,5.60
2023-04-26T00:55:34.666Z,5.45
2023-04-26T00:58:01.245Z,5.22
2023-04-26T01:00:27.969Z,6.30
2023-04-26T01:02:55.027Z,5.00
2023-04-26T01:05:21.861Z,6.00
2023-04-26T01:07:48.439Z,5.45
2023-04-26T01:10:15.055Z,5.30
2023-04-26T01:12:41.628Z,5.72
2023-04-26T01:15:10.203Z,5.32
2023-04-26T01:17:37.802Z,6.05
2023-04-26T01:20:05.839Z,5.63
2023-04-26T01:22:34.148Z,5.95
2023-04-26T01:25:04.320Z,5.93
2023-04-26T01:27:32.968Z,6.05
2023-04-26T01:29:59.524Z,6.35
2023-04-26T01:32:26.252Z,5.88
2023-04-26T01:34:52.813Z,6.18
2023-04-26T01:37:19.498Z,6.47
2023-04-26T01:39:46.540Z,6.03
2023-04-26T01:42:13.238Z,7.10
2023-04-26T01:44:39.845Z,6.18
2023-04-26T01:47:06.473Z,7.57
2023-04-26T01:49:33.227Z,7.55
2023-04-26T01:52:01.433Z,6.75
2023-04-26T01:54:28.061Z,7.68
2023-04-26T01:56:54.594Z,7.50
2023-04-26T01:59:21.241Z,7.70
2023-04-26T02:01:47.955Z,8.13
2023-04-26T02:04:14.700Z,7.35
2023-04-26T02:06:42.250Z,6.78
2023-04-26T02:09:11.591Z,7.45
2023-04-26T02:11:40.495Z,7.50
2023-04-26T02:14:07.207Z,8.10
2023-04-26T02:16:34.199Z,7.55
2023-04-26T02:19:01.009Z,7.90
2023-04-26T02:21:28.271Z,8.02
2023-04-26T02:23:55.357Z,7.60
2023-04-26T02:26:22.093Z,8.88
2023-04-26T02:28:48.737Z,7.78
2023-04-26T02:31:15.330Z,8.07
2023-04-26T02:33:41.934Z,7.72
2023-04-26T02:36:09.336Z,8.77
2023-04-26T02:38:36.530Z,7.15
2023-04-26T02:41:04.973Z,8.75
2023-04-26T02:43:36.542Z,8.88
2023-04-26T02:46:12.325Z,8.27
2023-04-26T02:48:38.881Z,8.68
2023-04-26T02:51:06.167Z,8.30
2023-04-26T02:53:32.801Z,8.82
2023-04-26T02:56:00.549Z,9.65
2023-04-26T02:58:32.719Z,8.55
2023-04-26T03:01:01.801Z,8.68
2023-04-26T03:03:29.290Z,8.88
2023-04-26T03:05:56.683Z,9.02
2023-04-26T03:08:23.277Z,8.18
2023-04-26T03:10:49.898Z,9.57
2023-04-26T03:13:16.833Z,9.07
2023-04-26T03:15:46.693Z,9.20
2023-04-26T03:18:13.410Z,10.25
2023-04-26T03:20:39.915Z,8.98
2023-04-26T03:23:07.472Z,9.80
2023-04-26T03:25:34.594Z,9.75
2023-04-26T03:28:01.387Z,9.60
2023-04-26T03:30:28.035Z,9.55
2023-04-26T03:32:55.737Z,9.32
2023-04-26T03:35:22.321Z,9.43
2023-04-26T03:37:50.387Z,9.25
2023-04-26T03:40:18.852Z,9.48
2023-04-26T03:42:46.011Z,9.55
2023-04-26T03:45:12.605Z,10.02
2023-04-26T03:47:39.321Z,9.60
2023-04-26T03:50:07.971Z,10.13
2023-04-26T03:52:34.752Z,9.52
2023-04-26T03:55:03.457Z,10.20
2023-04-26T03:57:30.273Z,10.07
2023-04-26T03:59:57.022Z,10.50
2023-04-26T04:02:24.047Z,11.20
2023-04-26T04:04:50.873Z,10.60
2023-04-26T04:07:17.962Z,10.52
2023-04-26T04:09:44.593Z,10.82
2023-04-26T04:12:11.534Z,12.68
2023-04-26T04:14:42.017Z,11.10
2023-04-26T04:17:11.850Z,11.07
2023-04-26T04:19:38.974Z,11.32
2023-04-26T04:22:07.030Z,11.05
2023-04-26T04:24:34.587Z,10.57
2023-04-26T04:27:01.643Z,11.93
2023-04-26T04:32:15.023Z,11.70
2023-04-26T04:34:43.110Z,12.07
2023-04-26T04:37:09.641Z,12.32
2023-04-26T04:39:36.545Z,11.95
2023-04-26T04:42:03.538Z,12.55
2023-04-26T04:44:30.363Z,11.98
2023-04-26T04:46:58.364Z,12.73
2023-04-26T04:49:25.070Z,12.40
2023-04-26T04:51:53.080Z,13.20
2023-04-26T04:54:20.043Z,14.07
2023-04-26T04:56:47.583Z,13.90
2023-04-26T04:59:15.931Z,12.85
2023-04-26T05:01:42.650Z,13.82
2023-04-26T05:04:13.698Z,13.95
2023-04-26T05:06:41.136Z,12.20
2023-04-26T05:09:08.489Z,12.02
2023-04-26T05:11:36.443Z,13.70
2023-04-26T05:14:06.567Z,14.07
2023-04-26T05:16:38.801Z,13.73
2023-04-26T05:19:07.970Z,13.05
2023-04-26T05:21:38.443Z,14.05
2023-04-26T05:24:07.271Z,15.30
2023-04-26T05:26:54.055Z,15.93
2023-04-26T05:29:42.197Z,14.55
2023-04-26T05:32:23.498Z,15.25
2023-04-26T05:35:03.758Z,13.18
2023-04-26T05:37:30.700Z,13.23
2023-04-26T05:39:57.416Z,13.35
2023-04-26T05:42:24.386Z,12.77
2023-04-26T05:44:51.410Z,12.63
2023-04-26T05:47:18.121Z,11.00
2023-04-26T05:49:45.250Z,12.95
2023-04-26T05:52:13.154Z,11.68
2023-04-26T05:54:39.687Z,10.80
2023-04-26T05:57:06.603Z,11.95
2023-04-26T05:59:36.562Z,10.98
2023-04-26T06:02:10.486Z,11.25
2023-04-26T06:04:37.500Z,11.80
2023-04-26T06:07:08.269Z,10.18
2023-04-26T06:09:35.006Z,10.55
2023-04-26T06:12:02.404Z,10.77
2023-04-26T06:14:31.079Z,11.10
2023-04-26T06:17:13.086Z,9.65
2023-04-26T06:19:39.919Z,10.48
2023-04-26T06:22:06.671Z,9.95
2023-04-26T06:24:33.978Z,10.57
2023-04-26T06:27:00.709Z,10.02
2023-04-26T06:29:32.909Z,9.90
2023-04-26T06:32:02.850Z,9.50
2023-04-26T06:34:30.394Z,9.13
2023-04-26T06:36:57.091Z,9.35
2023-04-26T06:39:25.733Z,9.13
2023-04-26T06:41:52.650Z,9.02
2023-04-26T06:44:27.321Z,9.25
2023-04-26T06:47:11.348Z,8.07
2023-04-26T06:49:38.716Z,8.60
2023-04-26T06:52:08.242Z,8.15
2023-04-26T06:54:42.739Z,8.82
2023-04-26T06:57:16.573Z,6.30
2023-04-26T06:59:43.095Z,8.02
2023-04-26T07:02:09.664Z,8.82
2023-04-26T07:04:36.772Z,8.18
2023-04-26T07:07:03.814Z,8.52
2023-04-26T07:09:30.619Z,8.40
2023-04-26T07:11:57.472Z,9.38
2023-04-26T07:14:24.530Z,9.00
2023-04-26T07:16:51.210Z,8.38
2023-04-26T07:19:18.230Z,7.30
2023-04-26T07:21:44.898Z,7.68
2023-04-26T07:24:13.496Z,8.73
2023-04-26T07:26:43.802Z,7.40
2023-04-26T07:29:10.463Z,7.03
2023-04-26T07:31:37.117Z,6.47
2023-04-26T07:34:07.091Z,8.48
2023-04-26T07:36:36.849Z,6.38
2023-04-26T07:39:05.250Z,6.55
2023-04-26T07:41:31.929Z,6.05
2023-04-26T07:43:59.066Z,6.00
2023-04-26T07:46:37.286Z,5.30
2023-04-26T07:49:04.228Z,4.13
2023-04-26T07:51:31.586Z,5.35
2023-04-26T07:53:58.193Z,4.75
2023-04-26T07:56:24.919Z,4.50
2023-04-26T07:58:51.694Z,5.50
2023-04-26T08:01:18.508Z,5.97
2023-04-26T08:03:45.585Z,6.30
2023-04-26T08:06:12.776Z,6.00
2023-04-26T08:08:44.756Z,6.00
2023-04-26T08:11:11.562Z,6.43
2023-04-26T08:13:38.343Z,6.43
2023-04-26T08:16:05.898Z,6.75
2023-04-26T08:18:32.663Z,7.03
2023-04-26T08:20:59.330Z,7.05
2023-04-26T08:23:26.271Z,6.53
2023-04-26T08:25:55.268Z,6.10
2023-04-26T08:28:21.989Z,6.05
2023-04-26T08:30:48.585Z,5.95
2023-04-26T08:33:15.284Z,5.90
2023-04-26T08:35:41.856Z,5.35
2023-04-26T08:38:08.702Z,4.00
2023-04-26T08:40:38.912Z,4.30
2023-04-26T08:43:05.754Z,4.20
2023-04-26T08:45:32.978Z,4.00
2023-04-26T08:48:04.781Z,3.78
2023-04-26T08:50:33.620Z,3.33
2023-04-26T08:53:00.410Z,4.05
2023-04-26T08:55:27.056Z,4.82
2023-04-26T08:57:54.030Z,4.45
2023-04-26T09:00:21.464Z,3.83
2023-04-26T09:02:52.582Z,3.80
2023-04-26T09:07:51.211Z,3.60
2023-04-26T09:10:21.967Z,4.45
2023-04-26T09:12:55.182Z,3.63
2023-04-26T09:15:23.067Z,4.20
2023-04-26T09:17:51.452Z,3.83
2023-04-26T09:20:28.860Z,4.28
2023-04-26T09:23:06.670Z,4.25
2023-04-26T09:25:34.499Z,4.32
2023-04-26T09:28:03.646Z,3.72
2023-04-26T09:30:31.395Z,3.72
2023-04-26T09:32:59.681Z,3.72
2023-04-26T09:35:30.235Z,3.72
2023-04-26T09:38:02.318Z,3.47
2023-04-26T09:40:36.872Z,2.97
2023-04-26T09:43:06.496Z,2.55
2023-04-26T09:45:34.571Z,3.20
2023-04-26T09:48:14.630Z,2.83
2023-04-26T09:50:41.292Z,2.35
2023-04-26T09:53:10.548Z,2.83
2023-04-26T09:55:37.341Z,3.33
2023-04-26T09:58:12.903Z,2.70
2023-04-26T10:00:41.891Z,2.85
2023-04-26T10:03:09.865Z,2.78
2023-04-26T10:05:37.232Z,2.90
2023-04-26T10:08:04.021Z,3.35
2023-04-26T10:10:31.917Z,2.65
2023-04-26T10:12:58.837Z,2.63
2023-04-26T10:15:26.334Z,2.70
2023-04-26T10:17:52.976Z,2.60
2023-04-26T10:20:21.256Z,2.40
2023-04-26T10:23:01.040Z,2.28
2023-04-26T10:25:37.757Z,2.20
2023-04-26T10:28:05.079Z,2.20
2023-04-26T10:30:32.293Z,2.30
2023-04-26T10:32:58.858Z,2.58
2023-04-26T10:35:29.270Z,2.30
2023-04-26T10:38:01.869Z,2.30
2023-04-26T10:40:38.637Z,2.75
2023-04-26T10:43:11.336Z,2.50
2023-04-26T10:45:38.917Z,2.28
2023-04-26T10:48:17.332Z,2.20
2023-04-26T10:51:02.350Z,2.85
2023-04-26T10:53:45.438Z,2.97
2023-04-26T10:56:23.953Z,2.95
2023-04-26T11:01:41.547Z,2.42
2023-04-26T11:04:09.743Z,2.63
2023-04-26T11:06:52.182Z,2.08
2023-04-26T11:09:39.737Z,2.10
2023-04-26T11:12:14.196Z,2.60
2023-04-26T11:14:45.428Z,2.45
2023-04-26T11:17:13.195Z,2.20
2023-04-26T11:19:41.432Z,1.90
2023-04-26T11:22:08.405Z,2.92
2023-04-26T11:24:42.610Z,2.22
2023-04-26T11:27:10.240Z,2.25
2023-04-26T11:29:37.223Z,2.10
2023-04-26T11:32:05.263Z,2.22
2023-04-26T11:34:39.313Z,2.08
2023-04-26T11:37:06.707Z,2.15
2023-04-26T11:39:36.831Z,2.42
2023-04-26T11:42:07.948Z,2.28
2023-04-26T11:44:35.364Z,2.38
2023-04-26T11:47:04.265Z,2.80
2023-04-26T11:49:36.271Z,2.28
2023-04-26T11:52:04.833Z,2.08
2023-04-26T11:54:36.610Z,2.47
2023-04-26T11:57:18.616Z,2.58
2023-04-26T11:59:45.882Z,2.20
2023-04-26T12:02:12.692Z,2.33
2023-04-26T12:04:40.988Z,2.20
2023-04-26T12:07:08.382Z,2.38
2023-04-26T12:09:43.440Z,2.25
2023-04-26T12:12:15.577Z,2.00
2023-04-26T12:14:42.345Z,2.20
2023-04-26T12:17:10.387Z,2.00
2023-04-26T12:19:38.374Z,1.90
2023-04-26T12:22:06.804Z,2.50
2023-04-26T12:24:35.820Z,2.10
2023-04-26T12:27:09.066Z,2.22
2023-04-26T12:29:35.726Z,2.53
2023-04-26T12:32:02.880Z,2.00
2023-04-26T12:34:29.915Z,2.33
2023-04-26T12:36:56.559Z,2.70
2023-04-26T12:39:23.210Z,2.35
2023-04-26T12:41:49.896Z,2.60
2023-04-26T12:44:16.590Z,2.45
2023-04-26T12:46:43.533Z,2.40
2023-04-26T12:49:10.212Z,2.60
2023-04-26T12:51:39.536Z,2.28
2023-04-26T12:54:06.085Z,2.33
2023-04-26T12:56:33.806Z,2.10
2023-04-26T12:59:00.441Z,2.00
2023-04-26T13:01:27.244Z,1.98
2023-04-26T13:03:55.940Z,2.28
2023-04-26T13:06:22.717Z,2.47
2023-04-26T13:08:49.381Z,2.33
2023-04-26T13:11:16.550Z,2.45
2023-04-26T13:13:44.687Z,2.92
2023-04-26T13:16:13.015Z,2.33
2023-04-26T13:18:40.734Z,22.70
2023-04-26T13:21:07.534Z,2.25
2023-04-26T13:23:34.318Z,2.88
2023-04-26T13:26:01.273Z,2.38
2023-04-26T13:28:28.368Z,1.98
2023-04-26T13:30:55.974Z,2.50
2023-04-26T13:33:22.877Z,2.47
2023-04-26T13:35:49.557Z,2.42
2023-04-26T13:38:16.939Z,2.33
2023-04-26T13:40:44.163Z,2.20
2023-04-26T13:43:10.923Z,2.50
2023-04-26T13:45:37.526Z,2.83
2023-04-26T13:48:04.530Z,2.33
2023-04-26T13:50:31.245Z,2.80
2023-04-26T13:52:58.120Z,2.63
2023-04-26T13:55:25.751Z,2.58
2023-04-26T13:57:52.487Z,3.05
2023-04-26T14:00:19.441Z,2.58
2023-04-26T14:02:47.367Z,2.38
2023-04-26T14:05:14.228Z,2.45
2023-04-26T14:07:41.563Z,2.50
2023-04-26T14:10:08.991Z,2.67
2023-04-26T14:12:35.898Z,3.05
2023-04-26T14:15:05.600Z,2.45
2023-04-26T14:17:32.875Z,2.63
2023-04-26T14:19:59.674Z,2.60
2023-04-26T14:22:27.054Z,2.72
2023-04-26T14:24:53.625Z,2.80
2023-04-26T14:27:20.440Z,3.53
2023-04-26T14:29:49.264Z,2.95
2023-04-26T14:32:32.271Z,3.13
2023-04-26T14:34:58.810Z,2.65
2023-04-26T14:37:28.307Z,3.50
2023-04-26T14:39:54.952Z,3.20
2023-04-26T14:42:21.709Z,2.80
2023-04-26T14:44:48.369Z,3.60
2023-04-26T14:47:15.039Z,3.15
2023-04-26T14:49:41.569Z,3.40
2023-04-26T14:52:08.254Z,3.00
2023-04-26T14:54:38.995Z,3.63
2023-04-26T14:57:05.733Z,3.33
2023-04-26T14:59:32.336Z,3.75
2023-04-26T15:01:59.109Z,3.47
2023-04-26T15:04:30.288Z,3.10
2023-04-26T15:09:23.887Z,3.30
2023-04-26T15:11:50.622Z,3.50
2023-04-26T15:14:17.179Z,3.03
2023-04-26T15:16:45.169Z,3.38
2023-04-26T15:19:11.988Z,3.30
2023-04-26T15:21:38.560Z,6.15
2023-04-26T15:24:05.705Z,3.72
2023-04-26T15:26:32.925Z,3.88
2023-04-26T15:28:59.580Z,3.80
2023-04-26T15:31:26.889Z,3.67
2023-04-26T15:33:59.352Z,3.60
2023-04-26T15:36:26.219Z,3.20
2023-04-26T15:38:52.939Z,3.47
2023-04-26T15:41:19.842Z,3.17
2023-04-26T15:43:46.511Z,3.80
2023-04-26T15:46:14.890Z,3.85
2023-04-26T15:48:41.551Z,4.35
2023-04-26T15:51:22.680Z,3.42
2023-04-26T15:53:50.571Z,2.75
2023-04-26T15:56:18.055Z,3.65
2023-04-26T15:58:45.774Z,4.30
2023-04-26T16:01:12.578Z,3.67
2023-04-26T16:03:39.642Z,2.83
2023-04-26T16:06:07.089Z,3.10
2023-04-26T16:11:05.993Z,3.35
2023-04-26T16:13:33.600Z,3.10
2023-04-26T16:16:00.677Z,3.45
2023-04-26T16:18:27.289Z,3.30
2023-04-26T16:21:03.340Z,3.28
2023-04-26T16:23:31.670Z,3.33
2023-04-26T16:25:58.734Z,4.28
2023-04-26T16:28:25.302Z,3.10
2023-04-26T16:30:52.068Z,3.53
2023-04-26T16:33:21.199Z,3.40
2023-04-26T16:35:53.152Z,3.20
2023-04-26T16:38:20.095Z,3.22
2023-04-26T16:41:01.282Z,2.92
2023-04-26T16:43:29.316Z,3.40
2023-04-26T16:46:06.304Z,3.33
2023-04-26T16:48:34.394Z,3.53
2023-04-26T16:51:04.130Z,3.53
2023-04-26T16:53:33.185Z,3.53
2023-04-26T16:56:00.353Z,3.60
2023-04-26T16:58:27.001Z,3.00
2023-04-26T17:00:53.826Z,3.47
2023-04-26T17:03:21.357Z,3.35
2023-04-26T17:05:48.559Z,3.75
2023-04-26T17:08:19.557Z,4.10
2023-04-26T17:10:48.010Z,3.35
2023-04-26T17:13:15.475Z,3.47
2023-04-26T17:15:42.342Z,3.78
2023-04-26T17:18:09.548Z,3.42
2023-04-26T17:20:37.115Z,3.47
2023-04-26T17:23:04.336Z,4.30
2023-04-26T17:25:31.420Z,3.50
2023-04-26T17:27:58.437Z,3.38
2023-04-26T17:30:25.319Z,4.20
2023-04-26T17:32:52.227Z,4.05
2023-04-26T17:35:18.856Z,3.88
2023-04-26T17:37:52.331Z,4.05
2023-04-26T17:40:19.111Z,3.95
2023-04-26T17:42:46.430Z,3.50
2023-04-26T17:45:14.197Z,3.63
2023-04-26T17:47:45.998Z,4.38
2023-04-26T17:50:12.664Z,3.72
2023-04-26T17:52:39.607Z,3.42
2023-04-26T17:55:08.345Z,3.67
2023-04-26T17:57:36.058Z,3.60
2023-04-26T18:00:15.812Z,3.60
2023-04-26T18:02:43.743Z,4.13
2023-04-26T18:05:10.498Z,3.28
2023-04-26T18:07:37.139Z,3.78
2023-04-26T18:10:04.193Z,3.45
2023-04-26T18:12:33.806Z,4.05
2023-04-26T18:15:00.330Z,3.47
2023-04-26T18:17:28.088Z,3.58
2023-04-26T18:19:54.825Z,4.30
2023-04-26T18:22:21.440Z,3.85
2023-04-26T18:24:48.162Z,4.05
2023-04-26T18:27:15.003Z,4.03
2023-04-26T18:29:41.878Z,4.18
2023-04-26T18:32:08.522Z,3.95
2023-04-26T18:34:36.190Z,3.90
2023-04-26T18:37:02.859Z,4.18
2023-04-26T18:39:30.319Z,3.92
2023-04-26T18:41:57.188Z,3.78
2023-04-26T18:44:23.974Z,4.20
2023-04-26T18:46:55.574Z,4.60
2023-04-26T18:49:23.246Z,4.22
2023-04-26T18:51:50.053Z,3.72
2023-04-26T18:54:16.719Z,4.40
2023-04-26T18:56:43.966Z,3.97
2023-04-26T18:59:10.624Z,4.55
2023-04-26T19:01:37.595Z,4.07
2023-04-26T19:04:04.460Z,3.88
2023-04-26T19:06:31.653Z,4.07
2023-04-26T19:08:59.003Z,3.92
2023-04-26T19:11:25.677Z,4.18
2023-04-26T19:13:52.260Z,4.68
2023-04-26T19:16:19.042Z,5.00
2023-04-26T19:18:47.230Z,4.03
2023-04-26T19:21:13.979Z,3.90
2023-04-26T19:23:40.789Z,4.22
2023-04-26T19:26:08.938Z,4.55
2023-04-26T19:28:35.857Z,4.30
2023-04-26T19:31:02.601Z,4.35
2023-04-26T19:33:29.965Z,4.65
2023-04-26T19:35:57.035Z,4.13
2023-04-26T19:38:24.921Z,4.72
2023-04-26T19:40:52.060Z,4.60
2023-04-26T19:43:18.814Z,4.15
2023-04-26T19:45:45.930Z,4.32
2023-04-26T19:48:13.381Z,4.72
2023-04-26T19:50:46.087Z,4.22
2023-04-26T19:53:14.079Z,4.40
2023-04-26T19:55:42.262Z,4.93
2023-04-26T19:58:10.414Z,4.97
2023-04-26T20:00:39.019Z,5.05
2023-04-26T20:03:06.448Z,4.47
2023-04-26T20:05:34.152Z,5.03
2023-04-26T20:08:01.740Z,5.30
2023-04-26T20:10:33.573Z,5.70
2023-04-26T20:13:00.940Z,5.57
2023-04-26T20:15:28.081Z,4.82
2023-04-26T20:17:55.248Z,5.07
2023-04-26T20:20:22.325Z,6.10
2023-04-26T20:22:49.080Z,5.15
2023-04-26T20:25:15.903Z,5.00
2023-04-26T20:27:42.643Z,5.68
2023-04-26T20:30:10.127Z,5.50
2023-04-26T20:32:36.795Z,5.40
2023-04-26T20:35:20.316Z,5.43
2023-04-26T20:37:47.723Z,5.47
2023-04-26T20:40:14.693Z,5.50
2023-04-26T20:42:41.452Z,6.35
2023-04-26T20:45:08.939Z,5.85
2023-04-26T20:47:37.078Z,6.28
2023-04-26T20:50:06.642Z,6.60
2023-04-26T20:52:34.407Z,6.37
2023-04-26T20:55:01.973Z,7.25
2023-04-26T20:57:29.168Z,7.15
2023-04-26T20:59:55.900Z,6.90
2023-04-26T21:02:22.706Z,6.35
2023-04-26T21:04:50.056Z,6.68
2023-04-26T21:07:16.791Z,6.97
2023-04-26T21:09:44.047Z,6.70
2023-04-26T21:12:11.066Z,6.53
2023-04-26T21:14:37.924Z,6.43
2023-04-26T21:17:05.689Z,12.25
2023-04-26T21:19:32.522Z,6.15
2023-04-26T21:21:59.285Z,6.35
2023-04-26T21:24:26.062Z,7.13
2023-04-26T21:26:52.720Z,6.45
2023-04-26T21:29:19.418Z,6.95
2023-04-26T21:31:46.223Z,7.35
2023-04-26T21:34:12.984Z,6.50
2023-04-26T21:36:39.864Z,6.78
2023-04-26T21:39:06.830Z,6.45
2023-04-26T21:41:34.008Z,7.05
2023-04-26T21:44:00.697Z,7.68
2023-04-26T21:46:27.478Z,7.50
2023-04-26T21:48:54.771Z,7.13
2023-04-26T21:51:21.570Z,7.53
2023-04-26T21:53:48.388Z,7.28
2023-04-26T21:56:15.584Z,7.57
2023-04-26T21:58:42.679Z,6.82
2023-04-26T22:01:11.601Z,7.32
2023-04-26T22:03:39.312Z,8.15
2023-04-26T22:06:07.211Z,7.40
2023-04-26T22:08:34.655Z,7.10
2023-04-26T22:11:02.493Z,7.45
2023-04-26T22:13:29.294Z,6.97
2023-04-26T22:15:56.017Z,6.60
2023-04-26T22:18:23.013Z,8.05
2023-04-26T22:20:49.644Z,7.53
2023-04-26T22:23:16.262Z,7.80
2023-04-26T22:25:42.811Z,8.32
2023-04-26T22:28:09.461Z,7.80
2023-04-26T22:30:36.172Z,8.27
2023-04-26T22:33:02.999Z,7.25
2023-04-26T22:35:30.022Z,8.13
2023-04-26T22:37:58.956Z,8.02
2023-04-26T22:40:25.911Z,7.82
2023-04-26T22:42:52.750Z,7.38
2023-04-26T22:45:19.566Z,8.07
2023-04-26T22:47:46.265Z,8.10
2023-04-26T22:50:13.023Z,7.60
2023-04-26T22:52:39.832Z,7.95
2023-04-26T22:55:07.164Z,8.38
2023-04-26T22:57:33.841Z,8.25
2023-04-26T23:00:02.072Z,8.32
2023-04-26T23:02:29.064Z,8.70
2023-04-26T23:04:55.868Z,8.20
2023-04-26T23:07:23.270Z,8.45
2023-04-26T23:09:51.014Z,8.95
2023-04-26T23:12:21.395Z,8.32
2023-04-26T23:14:48.608Z,8.68
2023-04-26T23:17:15.252Z,7.90
2023-04-26T23:19:42.619Z,8.32
2023-04-26T23:22:09.311Z,8.65
2023-04-26T23:24:36.412Z,8.65
2023-04-26T23:27:03.798Z,8.27
2023-04-26T23:29:31.145Z,8.10
2023-04-26T23:31:58.099Z,8.07
2023-04-26T23:34:24.936Z,7.70
2023-04-26T23:36:51.541Z,7.32
2023-04-26T23:39:18.330Z,8.40
2023-04-26T23:41:45.148Z,8.75
2023-04-26T23:44:11.945Z,9.30
2023-04-26T23:46:38.983Z,8.40
2023-04-26T23:49:05.557Z,8.10
2023-04-26T23:51:32.365Z,7.85
2023-04-26T23:53:59.092Z,8.30
2023-04-26T23:56:25.749Z,8.10
2023-04-26T23:58:52.452Z,8.80
